createdAt,value
2022-10-10T00:00:24.513Z,93704.63
2022-10-10T00:01:56.109Z,93700.31
2022-10-10T00:03:27.904Z,93699.53
2022-10-10T00:04:59.514Z,93692.34
2022-10-10T00:06:33.311Z,93693.72
2022-10-10T00:08:05.467Z,93692.25
2022-10-10T00:09:37.400Z,93684.56
2022-10-10T00:11:09.028Z,93692.16
2022-10-10T00:12:40.779Z,93694.19
2022-10-10T00:14:12.440Z,93697.69
2022-10-10T00:15:48.586Z,93702.47
2022-10-10T00:17:20.526Z,93698.97
2022-10-10T00:18:52.733Z,93693.47
2022-10-10T00:20:24.880Z,93691.47
2022-10-10T00:21:56.486Z,93692.44
2022-10-10T00:23:27.994Z,93690.53
2022-10-10T00:24:59.550Z,93688.94
2022-10-10T00:26:31.765Z,93694.97
2022-10-10T00:28:04.111Z,93694.97
2022-10-10T00:29:35.668Z,93692.84
2022-10-10T00:31:08.639Z,93694.56
2022-10-10T00:32:40.302Z,93686.66
2022-10-10T00:34:12.969Z,93691.75
2022-10-10T00:35:44.554Z,93690.66
2022-10-10T00:37:16.059Z,93690.03
2022-10-10T00:38:47.647Z,93682.41
2022-10-10T00:40:19.261Z,93683.53
2022-10-10T00:41:50.732Z,93680.81
2022-10-10T00:43:22.793Z,93684.31
2022-10-10T00:45:13.003Z,93695.94
2022-10-10T00:46:44.634Z,93693.53
2022-10-10T00:48:20.871Z,93699.84
2022-10-10T00:49:52.441Z,93692.97
2022-10-10T00:51:24.007Z,93696.09
2022-10-10T00:52:55.743Z,93697.28
2022-10-10T00:54:27.309Z,93690.69
2022-10-10T00:55:58.875Z,93688.72
2022-10-10T00:57:30.787Z,93693.63
2022-10-10T00:59:04.335Z,93687.72
2022-10-10T01:00:35.869Z,93686.31
2022-10-10T01:02:07.457Z,93685.72
2022-10-10T01:03:38.986Z,93685.44
2022-10-10T01:05:10.561Z,93684.94
2022-10-10T01:06:42.105Z,93677.94
2022-10-10T01:08:15.055Z,93676.03
2022-10-10T01:09:46.598Z,93680.03
2022-10-10T01:11:23.910Z,93681.13
2022-10-10T01:12:55.525Z,93675.75
2022-10-10T01:14:38.921Z,93673.84
2022-10-10T01:17:31.588Z,93673.03
2022-10-10T01:20:50.627Z,93674.44
2022-10-10T01:20:57.827Z,93677.22
2022-10-10T01:22:29.659Z,93678.31
2022-10-10T01:24:20.087Z,93680.22
2022-10-10T01:26:10.628Z,93683.53
2022-10-10T01:27:42.952Z,93685.75
2022-10-10T01:29:30.536Z,93683.63
2022-10-10T01:31:02.067Z,93676.47
2022-10-10T01:32:40.706Z,93692.75
2022-10-10T01:34:31.211Z,93683.94
2022-10-10T01:36:25.723Z,93678.97
2022-10-10T01:38:03.327Z,93691.56
2022-10-10T01:39:35.297Z,93676.88
2022-10-10T01:41:11.413Z,93678.84
2022-10-10T01:42:56.472Z,93685.94
2022-10-10T01:44:28.684Z,93684.31
2022-10-10T01:46:00.454Z,93680.06
2022-10-10T01:47:32.150Z,93685.75
2022-10-10T01:49:03.836Z,93685.94
2022-10-10T01:50:59.039Z,93684.25
2022-10-10T01:52:51.460Z,93685.56
2022-10-10T01:54:29.466Z,93686.06
2022-10-10T01:56:07.157Z,93686.25
2022-10-10T01:57:39.213Z,93680.25
2022-10-10T01:59:29.768Z,93681.16
2022-10-10T02:01:21.655Z,93692.56
2022-10-10T02:03:08.438Z,93688.84
2022-10-10T02:04:46.083Z,93682.75
2022-10-10T02:06:19.996Z,93678.94
2022-10-10T02:07:58.616Z,93684.31
2022-10-10T02:09:36.380Z,93690.53
2022-10-10T02:11:10.921Z,93691.66
2022-10-10T02:12:42.573Z,93695.44
2022-10-10T02:14:33.665Z,93694.63
2022-10-10T02:16:06.978Z,93690.94
2022-10-10T02:17:38.739Z,93693.31
2022-10-10T02:19:10.927Z,93690.84
2022-10-10T02:20:43.149Z,93693.53
2022-10-10T02:22:15.635Z,93693.84
2022-10-10T02:23:47.726Z,93702.72
2022-10-10T02:25:22.868Z,93700.63
2022-10-10T02:26:56.758Z,93706.31
2022-10-10T02:28:31.438Z,93701.19
2022-10-10T02:30:04.701Z,93704.69
2022-10-10T02:31:39.230Z,93705.28
2022-10-10T02:33:11.205Z,93708.88
2022-10-10T02:34:46.703Z,93709.19
2022-10-10T02:36:18.370Z,93706.25
2022-10-10T02:37:49.968Z,93710.63
2022-10-10T02:39:22.432Z,93698.03
2022-10-10T02:40:54.110Z,93702.41
2022-10-10T02:42:26.168Z,93707.00
2022-10-10T02:43:58.089Z,93707.00
2022-10-10T02:45:29.865Z,93702.41
2022-10-10T02:47:01.439Z,93705.63
2022-10-10T02:48:33.004Z,93704.22
2022-10-10T02:50:04.730Z,93708.03
2022-10-10T02:51:36.427Z,93713.03
2022-10-10T02:53:08.609Z,93708.44
2022-10-10T02:54:41.442Z,93708.75
2022-10-10T02:56:13.133Z,93704.44
2022-10-10T02:57:44.738Z,93703.44
2022-10-10T02:59:16.407Z,93712.09
2022-10-10T03:00:48.049Z,93715.41
2022-10-10T03:02:19.913Z,93702.53
2022-10-10T03:03:51.682Z,93714.97
2022-10-10T03:05:23.390Z,93715.06
2022-10-10T03:06:55.092Z,93718.34
2022-10-10T03:08:26.757Z,93716.22
2022-10-10T03:09:58.642Z,93720.63
2022-10-10T03:11:30.239Z,93713.13
2022-10-10T03:13:01.940Z,93715.31
2022-10-10T03:14:33.679Z,93720.97
2022-10-10T03:16:06.920Z,93719.09
2022-10-10T03:17:38.537Z,93718.50
2022-10-10T03:19:10.172Z,93722.81
2022-10-10T03:20:41.897Z,93719.50
2022-10-10T03:22:13.980Z,93724.88
2022-10-10T03:23:45.850Z,93735.88
2022-10-10T03:25:17.623Z,93726.72
2022-10-10T03:26:49.287Z,93734.00
2022-10-10T03:28:21.170Z,93730.72
2022-10-10T03:29:52.750Z,93726.94
2022-10-10T03:31:24.588Z,93735.53
2022-10-10T03:32:57.694Z,93726.94
2022-10-10T03:34:29.544Z,93731.81
2022-10-10T03:36:01.217Z,93737.88
2022-10-10T03:37:32.797Z,93732.34
2022-10-10T03:39:04.420Z,93736.22
2022-10-10T03:40:38.548Z,93737.16
2022-10-10T03:42:10.832Z,93731.66
2022-10-10T03:43:43.393Z,93728.22
2022-10-10T03:45:15.107Z,93733.16
2022-10-10T03:46:47.468Z,93736.72
2022-10-10T03:48:19.606Z,93734.13
2022-10-10T03:49:51.329Z,93731.19
2022-10-10T03:51:23.410Z,93731.75
2022-10-10T03:52:55.104Z,93728.56
2022-10-10T03:54:26.748Z,93724.25
2022-10-10T03:55:58.479Z,93726.16
2022-10-10T03:57:30.128Z,93723.78
2022-10-10T03:59:03.998Z,93721.94
2022-10-10T04:00:35.785Z,93725.22
2022-10-10T04:02:07.794Z,93722.81
2022-10-10T04:03:39.953Z,93716.13
2022-10-10T04:05:11.574Z,93728.25
2022-10-10T04:06:43.336Z,93720.19
2022-10-10T04:08:14.968Z,93717.22
2022-10-10T04:09:46.821Z,93723.88
2022-10-10T04:11:18.715Z,93719.81
2022-10-10T04:12:51.302Z,93724.88
2022-10-10T04:14:23.420Z,93724.78
2022-10-10T04:15:55.758Z,93722.31
2022-10-10T04:17:28.301Z,93726.03
2022-10-10T04:19:00.016Z,93730.63
2022-10-10T04:20:31.956Z,93729.22
2022-10-10T04:22:05.241Z,93730.53
2022-10-10T04:23:41.390Z,93721.09
2022-10-10T04:25:12.949Z,93726.69
2022-10-10T04:26:44.908Z,93719.09
2022-10-10T04:28:16.891Z,93722.13
2022-10-10T04:29:48.560Z,93718.09
2022-10-10T04:31:20.115Z,93726.47
2022-10-10T04:32:52.230Z,93728.66
2022-10-10T04:34:24.285Z,93723.56
2022-10-10T04:40:27.211Z,93730.03
2022-10-10T04:44:05.580Z,93727.28
2022-10-10T04:45:37.845Z,93726.19
2022-10-10T04:47:11.909Z,93725.91
2022-10-10T04:48:43.532Z,93730.47
2022-10-10T04:50:15.214Z,93721.81
2022-10-10T04:51:47.636Z,93726.09
2022-10-10T04:53:19.110Z,93727.97
2022-10-10T04:54:51.201Z,93726.31
2022-10-10T04:56:22.753Z,93729.00
2022-10-10T04:57:54.413Z,93727.13
2022-10-10T04:59:26.034Z,93726.31
2022-10-10T05:00:57.807Z,93731.19
2022-10-10T05:02:29.372Z,93732.22
2022-10-10T05:04:01.071Z,93722.25
2022-10-10T05:05:32.774Z,93732.94
2022-10-10T05:07:04.756Z,93736.13
2022-10-10T05:08:36.413Z,93727.78
2022-10-10T05:10:09.193Z,93731.84
2022-10-10T05:11:42.696Z,93733.44
2022-10-10T05:13:15.661Z,93740.94
2022-10-10T05:14:53.689Z,93742.56
2022-10-10T05:16:30.715Z,93740.84
2022-10-10T05:18:02.552Z,93736.72
2022-10-10T05:19:34.133Z,93746.59
2022-10-10T05:21:07.688Z,93740.13
2022-10-10T05:22:39.184Z,93744.88
2022-10-10T05:24:10.761Z,93745.34
2022-10-10T05:25:48.928Z,93753.13
2022-10-10T05:27:20.537Z,93756.13
2022-10-10T05:28:52.054Z,93761.44
2022-10-10T05:30:23.712Z,93762.16
2022-10-10T05:31:55.303Z,93757.28
2022-10-10T05:33:26.902Z,93759.38
2022-10-10T05:34:58.542Z,93765.50
2022-10-10T05:36:30.223Z,93759.22
2022-10-10T05:38:01.953Z,93762.31
2022-10-10T05:39:33.891Z,93764.41
2022-10-10T05:41:05.633Z,93766.69
2022-10-10T05:42:37.239Z,93767.03
2022-10-10T05:44:14.420Z,93767.13
2022-10-10T05:45:55.563Z,93764.56
2022-10-10T05:47:37.765Z,93771.69
2022-10-10T05:49:09.403Z,93773.97
2022-10-10T05:50:41.426Z,93779.16
2022-10-10T05:52:13.132Z,93783.09
2022-10-10T05:53:44.801Z,93781.88
2022-10-10T05:55:16.430Z,93779.38
2022-10-10T05:56:48.128Z,93783.47
2022-10-10T05:58:22.544Z,93789.06
2022-10-10T05:59:54.147Z,93786.75
2022-10-10T06:01:25.727Z,93785.06
2022-10-10T06:02:58.566Z,93790.56
2022-10-10T06:04:30.235Z,93788.66
2022-10-10T06:06:03.374Z,93795.59
2022-10-10T06:07:59.529Z,93795.09
2022-10-10T06:09:26.820Z,93789.97
2022-10-10T06:11:05.213Z,93790.88
2022-10-10T06:12:37.176Z,93797.88
2022-10-10T06:14:09.335Z,93787.56
2022-10-10T06:15:41.294Z,93795.16
2022-10-10T06:17:13.519Z,93795.63
2022-10-10T06:18:45.017Z,93801.22
2022-10-10T06:20:16.727Z,93798.19
2022-10-10T06:21:49.123Z,93792.47
2022-10-10T06:23:20.838Z,93799.06
2022-10-10T06:24:53.243Z,93804.25
2022-10-10T06:26:24.822Z,93799.09
2022-10-10T06:27:56.992Z,93800.31
2022-10-10T06:29:28.664Z,93798.66
2022-10-10T06:31:01.199Z,93797.28
2022-10-10T06:32:32.750Z,93797.84
2022-10-10T06:34:04.320Z,93800.97
2022-10-10T06:35:38.940Z,93796.22
2022-10-10T06:37:12.480Z,93797.50
2022-10-10T06:38:44.396Z,93795.81
2022-10-10T06:40:15.956Z,93799.22
2022-10-10T06:41:49.021Z,93793.97
2022-10-10T06:43:20.826Z,93794.63
2022-10-10T06:44:52.398Z,93796.88
2022-10-10T06:46:23.998Z,93804.06
2022-10-10T06:47:55.666Z,93796.41
2022-10-10T06:49:28.116Z,93807.72
2022-10-10T06:51:03.451Z,93804.69
2022-10-10T06:52:35.737Z,93807.59
2022-10-10T06:54:11.985Z,93809.00
2022-10-10T06:55:57.403Z,93806.06
2022-10-10T06:57:29.312Z,93807.66
2022-10-10T06:59:00.858Z,93809.84
2022-10-10T07:00:32.525Z,93811.72
2022-10-10T07:02:04.030Z,93804.06
2022-10-10T07:03:35.630Z,93810.19
2022-10-10T07:05:09.179Z,93818.81
2022-10-10T07:06:40.851Z,93812.75
2022-10-10T07:08:12.517Z,93815.78
2022-10-10T07:09:44.062Z,93814.03
2022-10-10T07:11:18.233Z,93814.50
2022-10-10T07:12:49.793Z,93819.63
2022-10-10T07:14:21.318Z,93814.38
2022-10-10T07:15:53.531Z,93811.56
2022-10-10T07:17:25.167Z,93808.72
2022-10-10T07:18:56.747Z,93800.78
2022-10-10T07:20:28.319Z,93798.59
2022-10-10T07:21:59.863Z,93801.97
2022-10-10T07:23:33.379Z,93793.50
2022-10-10T07:25:05.271Z,93795.75
2022-10-10T07:26:39.831Z,93793.19
2022-10-10T07:28:11.857Z,93784.09
2022-10-10T07:29:43.512Z,93789.34
2022-10-10T07:31:18.304Z,93777.56
2022-10-10T07:32:50.482Z,93776.91
2022-10-10T07:34:22.510Z,93779.28
2022-10-10T07:35:54.884Z,93780.38
2022-10-10T07:37:26.425Z,93773.03
2022-10-10T07:38:58.230Z,93771.28
2022-10-10T07:40:29.850Z,93776.38
2022-10-10T07:42:01.501Z,93765.16
2022-10-10T07:43:33.086Z,93771.72
2022-10-10T07:45:05.429Z,93763.09
2022-10-10T07:46:37.057Z,93772.06
2022-10-10T07:48:08.636Z,93765.81
2022-10-10T07:49:40.184Z,93765.50
2022-10-10T07:51:12.251Z,93764.81
2022-10-10T07:52:43.946Z,93768.09
2022-10-10T07:54:15.524Z,93770.09
2022-10-10T07:55:47.559Z,93762.13
2022-10-10T07:57:19.360Z,93767.63
2022-10-10T07:58:51.496Z,93767.56
2022-10-10T08:00:23.523Z,93776.53
2022-10-10T08:01:59.182Z,93782.28
2022-10-10T08:03:32.852Z,93789.97
2022-10-10T08:05:04.746Z,93789.78
2022-10-10T08:06:36.680Z,93785.44
2022-10-10T08:08:08.651Z,93785.75
2022-10-10T08:09:40.699Z,93800.31
2022-10-10T08:11:12.206Z,93793.53
2022-10-10T08:12:44.968Z,93801.13
2022-10-10T08:14:16.746Z,93793.59
2022-10-10T08:15:50.528Z,93802.91
2022-10-10T08:17:22.493Z,93795.00
2022-10-10T08:18:54.432Z,93800.50
2022-10-10T08:20:25.932Z,93788.81
2022-10-10T08:21:57.480Z,93802.34
2022-10-10T08:23:29.032Z,93793.59
2022-10-10T08:25:00.587Z,93799.19
2022-10-10T08:26:32.122Z,93789.06
2022-10-10T08:28:03.698Z,93803.03
2022-10-10T08:29:35.267Z,93798.59
2022-10-10T08:31:07.971Z,93804.41
2022-10-10T08:32:39.717Z,93793.00
2022-10-10T08:34:11.588Z,93797.75
2022-10-10T08:35:43.609Z,93799.56
2022-10-10T08:37:15.462Z,93800.91
2022-10-10T08:38:57.556Z,93802.16
2022-10-10T08:40:29.829Z,93810.50
2022-10-10T08:42:01.961Z,93804.84
2022-10-10T08:43:35.091Z,93806.31
2022-10-10T08:45:16.695Z,93810.16
2022-10-10T08:46:52.886Z,93815.75
2022-10-10T08:48:28.267Z,93808.25
2022-10-10T08:50:04.088Z,93817.13
2022-10-10T08:51:35.745Z,93815.06
2022-10-10T08:53:08.905Z,93817.66
2022-10-10T08:54:40.847Z,93813.75
2022-10-10T08:56:23.952Z,93817.50
2022-10-10T08:57:56.972Z,93819.22
2022-10-10T08:59:30.448Z,93809.44
2022-10-10T09:01:10.409Z,93817.41
2022-10-10T09:02:53.647Z,93814.47
2022-10-10T09:04:26.139Z,93816.91
2022-10-10T09:06:17.214Z,93816.13
2022-10-10T09:08:07.650Z,93816.75
2022-10-10T09:09:39.724Z,93821.84
2022-10-10T09:11:11.325Z,93828.09
2022-10-10T09:12:46.204Z,93824.91
2022-10-10T09:14:27.228Z,93817.28
2022-10-10T09:16:00.510Z,93823.00
2022-10-10T09:17:37.341Z,93829.25
2022-10-10T09:19:14.798Z,93822.31
2022-10-10T09:20:55.254Z,93828.78
2022-10-10T09:22:28.179Z,93830.16
2022-10-10T09:24:13.580Z,93827.53
2022-10-10T09:25:54.181Z,93825.72
2022-10-10T09:27:27.818Z,93837.66
2022-10-10T09:29:06.377Z,93836.19
2022-10-10T09:30:41.591Z,93840.03
2022-10-10T09:32:32.454Z,93839.25
2022-10-10T09:34:13.478Z,93842.53
2022-10-10T09:35:45.391Z,93846.97
2022-10-10T09:37:35.632Z,93841.63
2022-10-10T09:39:33.665Z,93840.84
2022-10-10T09:41:25.498Z,93842.06
2022-10-10T09:42:57.150Z,93845.56
2022-10-10T09:44:33.249Z,93846.97
2022-10-10T09:46:06.143Z,93839.78
2022-10-10T09:47:42.131Z,93843.41
2022-10-10T09:49:17.878Z,93840.03
2022-10-10T09:50:49.628Z,93842.84
2022-10-10T09:52:26.692Z,93841.50
2022-10-10T09:53:58.276Z,93840.09
2022-10-10T09:55:39.072Z,93842.84
2022-10-10T09:57:10.543Z,93838.97
2022-10-10T09:58:42.670Z,93844.44
2022-10-10T10:00:14.333Z,93837.50
2022-10-10T10:01:45.849Z,93839.88
2022-10-10T10:03:18.402Z,93833.28
2022-10-10T10:04:50.425Z,93839.16
2022-10-10T10:06:22.016Z,93837.44
2022-10-10T10:07:53.663Z,93830.84
2022-10-10T10:09:25.366Z,93830.06
2022-10-10T10:11:00.477Z,93832.19
2022-10-10T10:12:38.910Z,93832.81
2022-10-10T10:14:20.871Z,93833.13
2022-10-10T10:15:55.983Z,93823.56
2022-10-10T10:17:28.264Z,93822.94
2022-10-10T10:19:02.367Z,93829.66
2022-10-10T10:20:34.930Z,93826.91
2022-10-10T10:22:27.280Z,93820.53
2022-10-10T10:24:19.659Z,93824.69
2022-10-10T10:26:01.558Z,93826.09
2022-10-10T10:27:33.668Z,93822.47
2022-10-10T10:29:05.631Z,93831.16
2022-10-10T10:30:38.143Z,93825.38
2022-10-10T10:32:16.134Z,93821.09
2022-10-10T10:34:10.776Z,93827.94
2022-10-10T10:35:45.590Z,93823.06
2022-10-10T10:37:23.417Z,93825.13
2022-10-10T10:39:13.663Z,93817.94
2022-10-10T10:40:51.160Z,93822.06
2022-10-10T10:42:22.648Z,93821.13
2022-10-10T10:43:57.494Z,93817.38
2022-10-10T10:45:37.831Z,93817.91
2022-10-10T10:47:24.916Z,93810.72
2022-10-10T10:49:01.573Z,93805.56
2022-10-10T10:50:39.036Z,93801.91
2022-10-10T10:52:20.394Z,93801.63
2022-10-10T10:54:10.555Z,93795.03
2022-10-10T10:55:45.014Z,93796.72
2022-10-10T10:57:32.912Z,93794.88
2022-10-10T11:01:24.213Z,93789.66
2022-10-10T11:03:35.267Z,93794.88
2022-10-10T11:05:28.999Z,93791.59
2022-10-10T11:07:20.594Z,93787.69
2022-10-10T11:09:02.205Z,93785.34
2022-10-10T11:10:52.327Z,93784.47
2022-10-10T11:12:29.352Z,93779.34
2022-10-10T11:14:09.750Z,93773.41
2022-10-10T11:17:38.083Z,93775.34
2022-10-10T11:19:15.647Z,93762.84
2022-10-10T11:20:51.062Z,93770.34
2022-10-10T11:22:24.487Z,93762.25
2022-10-10T11:23:56.964Z,93755.84
2022-10-10T11:25:33.041Z,93751.38
2022-10-10T11:27:06.530Z,93750.44
2022-10-10T11:28:40.306Z,93736.59
2022-10-10T11:30:20.333Z,93740.06
2022-10-10T11:31:53.824Z,93724.63
2022-10-10T11:33:31.980Z,93724.41
2022-10-10T11:35:07.220Z,93723.63
2022-10-10T11:36:39.390Z,93727.81
2022-10-10T11:38:39.966Z,93725.03
2022-10-10T11:40:18.542Z,93729.19
2022-10-10T11:41:54.764Z,93731.91
2022-10-10T11:43:26.603Z,93718.75
2022-10-10T11:45:03.125Z,93715.31
2022-10-10T11:46:42.564Z,93714.88
2022-10-10T11:48:14.551Z,93712.75
2022-10-10T11:49:52.526Z,93711.78
2022-10-10T11:51:36.634Z,93718.28
2022-10-10T11:53:28.564Z,93707.06
2022-10-10T11:55:19.272Z,93707.28
2022-10-10T11:56:51.279Z,93705.00
2022-10-10T11:58:38.530Z,93710.31
2022-10-10T12:00:14.071Z,93703.75
2022-10-10T12:01:47.155Z,93699.72
2022-10-10T12:03:19.116Z,93697.50
2022-10-10T12:04:51.074Z,93698.16
2022-10-10T12:06:25.985Z,93694.50
2022-10-10T12:07:57.859Z,93690.81
2022-10-10T12:09:33.564Z,93693.69
2022-10-10T12:11:08.295Z,93697.59
2022-10-10T12:12:40.567Z,93698.97
2022-10-10T12:14:15.726Z,93693.34
2022-10-10T12:15:50.348Z,93693.34
2022-10-10T12:17:22.882Z,93693.34
2022-10-10T12:19:01.289Z,93687.09
2022-10-10T12:20:36.082Z,93684.50
2022-10-10T12:22:08.696Z,93692.38
2022-10-10T12:23:42.702Z,93684.94
2022-10-10T12:25:24.093Z,93691.25
2022-10-10T12:26:56.095Z,93687.13
2022-10-10T12:28:29.258Z,93686.94
2022-10-10T12:30:00.893Z,93678.94
2022-10-10T12:31:36.156Z,93683.81
2022-10-10T12:33:18.577Z,93682.06
2022-10-10T12:34:50.238Z,93680.81
2022-10-10T12:36:22.088Z,93683.84
2022-10-10T12:38:06.181Z,93686.94
2022-10-10T12:39:38.178Z,93679.47
2022-10-10T12:41:10.828Z,93675.25
2022-10-10T12:42:48.820Z,93678.25
2022-10-10T12:44:35.546Z,93672.19
2022-10-10T12:46:09.144Z,93676.66
2022-10-10T12:48:04.327Z,93674.41
2022-10-10T12:49:36.351Z,93668.44
2022-10-10T12:51:13.925Z,93686.72
2022-10-10T12:52:48.136Z,93684.22
2022-10-10T12:54:24.944Z,93683.00
2022-10-10T12:55:57.768Z,93692.25
2022-10-10T12:57:29.728Z,93685.72
2022-10-10T12:59:01.622Z,93688.22
2022-10-10T13:00:42.733Z,93685.91
2022-10-10T13:02:19.430Z,93682.88
2022-10-10T13:03:51.036Z,93679.13
2022-10-10T13:05:29.243Z,93678.38
2022-10-10T13:07:01.286Z,93683.75
2022-10-10T13:08:32.875Z,93676.72
2022-10-10T13:10:05.978Z,93681.28
2022-10-10T13:11:56.565Z,93678.25
2022-10-10T13:13:28.194Z,93679.44
2022-10-10T13:15:00.057Z,93677.25
2022-10-10T13:16:34.131Z,93684.47
2022-10-10T13:18:06.453Z,93678.16
2022-10-10T13:19:41.042Z,93689.81
2022-10-10T13:21:12.959Z,93681.13
2022-10-10T13:22:47.271Z,93680.34
2022-10-10T13:24:52.356Z,93675.28
2022-10-10T13:26:38.692Z,93672.00
2022-10-10T13:29:51.334Z,93677.28
2022-10-10T13:31:23.605Z,93680.84
2022-10-10T13:32:56.250Z,93684.00
2022-10-10T13:34:30.832Z,93682.50
2022-10-10T13:36:07.582Z,93676.22
2022-10-10T13:37:40.027Z,93682.50
2022-10-10T13:39:17.764Z,93684.63
2022-10-10T13:40:49.319Z,93678.16
2022-10-10T13:42:20.827Z,93673.22
2022-10-10T13:43:52.395Z,93676.31
2022-10-10T13:45:30.681Z,93674.03
2022-10-10T13:47:22.482Z,93672.94
2022-10-10T13:49:03.120Z,93678.94
2022-10-10T13:50:51.132Z,93678.31
2022-10-10T13:52:26.006Z,93672.31
2022-10-10T13:53:57.596Z,93677.00
2022-10-10T13:55:34.307Z,93672.66
2022-10-10T13:57:06.377Z,93675.34
2022-10-10T13:58:39.565Z,93670.84
2022-10-10T14:00:15.529Z,93675.50
2022-10-10T14:01:50.718Z,93666.41
2022-10-10T14:03:31.436Z,93665.16
2022-10-10T14:05:06.866Z,93664.78
2022-10-10T14:06:38.468Z,93665.75
2022-10-10T14:08:14.847Z,93660.19
2022-10-10T14:09:53.393Z,93669.94
2022-10-10T14:11:26.397Z,93671.53
2022-10-10T14:12:58.604Z,93668.00
2022-10-10T14:14:34.407Z,93660.88
2022-10-10T14:16:12.397Z,93665.78
2022-10-10T14:17:44.069Z,93656.50
2022-10-10T14:19:19.477Z,93659.09
2022-10-10T14:20:51.234Z,93660.31
2022-10-10T14:22:22.974Z,93656.53
2022-10-10T14:23:54.575Z,93654.94
2022-10-10T14:25:26.120Z,93651.53
2022-10-10T14:26:57.711Z,93651.31
2022-10-10T14:28:29.982Z,93649.63
2022-10-10T14:30:01.880Z,93651.56
2022-10-10T14:31:33.700Z,93648.22
2022-10-10T14:33:12.010Z,93640.66
2022-10-10T14:34:43.712Z,93642.75
2022-10-10T14:36:15.351Z,93645.00
2022-10-10T14:37:46.873Z,93642.16
2022-10-10T14:39:18.824Z,93639.31
2022-10-10T14:40:50.685Z,93635.44
2022-10-10T14:42:23.121Z,93640.56
2022-10-10T14:43:54.798Z,93632.63
2022-10-10T14:45:26.358Z,93641.91
2022-10-10T14:46:58.305Z,93641.38
2022-10-10T14:48:30.040Z,93631.00
2022-10-10T14:50:01.723Z,93637.03
2022-10-10T14:51:38.647Z,93625.41
2022-10-10T14:53:10.937Z,93627.91
2022-10-10T14:54:42.447Z,93623.00
2022-10-10T14:56:14.062Z,93625.34
2022-10-10T14:57:45.680Z,93621.56
2022-10-10T14:59:17.995Z,93623.59
2022-10-10T15:01:09.733Z,93622.47
2022-10-10T15:02:45.392Z,93621.56
2022-10-10T15:04:18.052Z,93622.97
2022-10-10T15:05:49.700Z,93622.09
2022-10-10T15:07:21.344Z,93617.94
2022-10-10T15:08:52.862Z,93626.72
2022-10-10T15:10:39.627Z,93621.50
2022-10-10T15:12:11.447Z,93619.91
2022-10-10T15:13:43.051Z,93625.19
2022-10-10T15:15:14.757Z,93623.50
2022-10-10T15:16:46.285Z,93628.66
2022-10-10T15:18:49.102Z,93619.03
2022-10-10T15:20:10.739Z,93630.34
2022-10-10T15:21:42.305Z,93629.44
2022-10-10T15:23:13.807Z,93621.50
2022-10-10T15:24:46.177Z,93632.19
2022-10-10T15:26:17.852Z,93632.44
2022-10-10T15:27:51.614Z,93630.66
2022-10-10T15:29:23.133Z,93630.19
2022-10-10T15:30:55.215Z,93631.13
2022-10-10T15:32:27.232Z,93624.19
2022-10-10T15:33:59.637Z,93631.34
2022-10-10T15:35:50.291Z,93627.59
2022-10-10T15:37:24.581Z,93620.69
2022-10-10T15:38:56.677Z,93623.50
2022-10-10T15:40:29.398Z,93618.84
2022-10-10T15:42:09.321Z,93623.63
2022-10-10T15:43:54.684Z,93625.63
2022-10-10T15:45:56.603Z,93630.56
2022-10-10T15:47:18.433Z,93631.16
2022-10-10T15:48:50.077Z,93628.53
2022-10-10T15:50:26.711Z,93631.91
2022-10-10T15:51:58.597Z,93628.72
2022-10-10T15:53:30.163Z,93632.81
2022-10-10T15:55:01.819Z,93632.88
2022-10-10T15:56:33.613Z,93621.28
2022-10-10T15:58:05.379Z,93637.34
2022-10-10T15:59:39.280Z,93626.34
2022-10-10T16:01:18.153Z,93635.50
2022-10-10T16:02:49.765Z,93631.19
2022-10-10T16:04:22.630Z,93632.97
2022-10-10T16:05:54.228Z,93623.78
2022-10-10T16:07:29.513Z,93632.31
2022-10-10T16:09:26.869Z,93632.34
2022-10-10T16:10:54.171Z,93630.84
2022-10-10T16:12:25.870Z,93632.97
2022-10-10T16:13:57.532Z,93637.78
2022-10-10T16:15:29.099Z,93636.41
2022-10-10T16:17:01.003Z,93642.97
2022-10-10T16:18:35.505Z,93644.88
2022-10-10T16:20:10.961Z,93636.59
2022-10-10T16:21:42.716Z,93646.06
2022-10-10T16:23:14.233Z,93639.69
2022-10-10T16:24:58.453Z,93644.16
2022-10-10T16:26:37.633Z,93646.28
2022-10-10T16:28:09.496Z,93635.97
2022-10-10T16:29:41.057Z,93640.44
2022-10-10T16:31:13.385Z,93638.38
2022-10-10T16:32:45.060Z,93634.88
2022-10-10T16:34:18.415Z,93649.09
2022-10-10T16:35:49.982Z,93658.69
2022-10-10T16:37:21.630Z,93658.06
2022-10-10T16:38:58.049Z,93659.03
2022-10-10T16:40:29.929Z,93661.59
2022-10-10T16:42:01.474Z,93655.22
2022-10-10T16:43:33.115Z,93657.00
2022-10-10T16:45:04.939Z,93659.09
2022-10-10T16:46:36.817Z,93655.44
2022-10-10T16:48:08.825Z,93647.47
2022-10-10T16:49:40.484Z,93656.25
2022-10-10T16:51:13.357Z,93661.19
2022-10-10T16:52:45.270Z,93664.25
2022-10-10T16:54:17.037Z,93665.81
2022-10-10T16:55:48.746Z,93664.09
2022-10-10T16:57:20.333Z,93663.94
2022-10-10T16:58:51.990Z,93663.78
2022-10-10T17:00:23.522Z,93662.22
2022-10-10T17:01:55.013Z,93666.69
2022-10-10T17:03:26.674Z,93663.97
2022-10-10T17:04:58.301Z,93661.88
2022-10-10T17:06:35.014Z,93669.09
2022-10-10T17:08:06.781Z,93668.94
2022-10-10T17:09:39.260Z,93665.75
2022-10-10T17:11:10.904Z,93664.47
2022-10-10T17:12:42.444Z,93667.84
2022-10-10T17:14:13.952Z,93661.94
2022-10-10T17:15:45.504Z,93666.72
2022-10-10T17:17:17.666Z,93664.31
2022-10-10T17:18:49.846Z,93667.69
2022-10-10T17:20:21.624Z,93672.63
2022-10-10T17:21:53.636Z,93665.63
2022-10-10T17:23:25.274Z,93665.44
2022-10-10T17:24:57.424Z,93661.13
2022-10-10T17:26:29.320Z,93666.88
2022-10-10T17:28:00.854Z,93666.44
2022-10-10T17:29:33.084Z,93669.44
2022-10-10T17:31:09.165Z,93648.88
2022-10-10T17:32:42.271Z,93664.34
2022-10-10T17:39:20.023Z,93656.84
2022-10-10T17:40:57.886Z,93657.31
2022-10-10T17:42:30.601Z,93656.69
2022-10-10T17:44:02.323Z,93651.28
2022-10-10T17:45:34.043Z,93657.50
2022-10-10T17:47:05.676Z,93658.28
2022-10-10T17:48:38.968Z,93656.69
2022-10-10T17:50:13.239Z,93652.38
2022-10-10T17:51:45.309Z,93654.13
2022-10-10T17:53:16.858Z,93656.84
2022-10-10T17:54:48.569Z,93661.75
2022-10-10T17:56:20.806Z,93662.75
2022-10-10T17:57:52.791Z,93658.13
2022-10-10T17:59:24.325Z,93664.03
2022-10-10T18:01:02.648Z,93661.00
2022-10-10T18:02:34.309Z,93659.88
2022-10-10T18:04:06.062Z,93663.06
2022-10-10T18:05:37.933Z,93660.66
2022-10-10T18:07:09.498Z,93661.31
2022-10-10T18:08:41.102Z,93669.75
2022-10-10T18:10:12.838Z,93667.06
2022-10-10T18:19:11.500Z,93675.19
2022-10-10T18:20:43.000Z,93668.66
2022-10-10T18:22:15.197Z,93674.56
2022-10-10T18:23:46.678Z,93673.09
2022-10-10T18:25:21.683Z,93663.06
2022-10-10T18:26:57.964Z,93665.44
2022-10-10T18:28:30.701Z,93663.06
2022-10-10T18:30:02.780Z,93661.63
2022-10-10T18:31:35.070Z,93666.25
2022-10-10T18:33:06.703Z,93665.13
2022-10-10T18:34:38.800Z,93664.34
2022-10-10T18:36:10.859Z,93657.81
2022-10-10T18:37:42.865Z,93661.63
2022-10-10T18:39:14.979Z,93667.84
2022-10-10T18:40:47.482Z,93666.72
2022-10-10T18:42:19.376Z,93663.88
2022-10-10T18:43:51.620Z,93663.38
2022-10-10T18:45:23.122Z,93666.41
2022-10-10T18:46:54.905Z,93665.94
2022-10-10T18:48:26.609Z,93665.94
2022-10-10T18:49:58.492Z,93665.44
2022-10-10T18:51:30.164Z,93676.28
2022-10-10T18:53:01.833Z,93667.84
2022-10-10T18:54:35.630Z,93670.88
2022-10-10T18:56:07.950Z,93663.84